Teterboro Airport
KTEB : rendu visible

Aérodrome :











RETROUVEZ-NOUS SUR...

 
LOGIN :

S'inscrire | Disclaimer

   EN    FR    IT 

 









Légende :    VFR   VFR Marginal   IFR   IFR Intensif   IFR Très Intensif
Visi : 
Plafond : 
>= 8 km
>= 3000ft
5 à 8 km
1000 à 3000 ft
1500m à 5 km
500 à 1000 ft
800 à 1500m
200 à 500 ft
< 800m
< 200 ft
Symboles :   Orages  Brouillard  Fortes neiges  Fortes précipitations  Vent > 20 kt






- Altitude de l'aérodrome : 9 ft


KTEB - Teterboro

DERNIER METAR :
  • 171751Z 06010KT 10SM BKN034 OVC050 06/02 A3026 RMK AO2 SLP245 T00610022 10061 21011 56034

METARs EXPIRÉS :
  • 171651Z 05008KT 10SM OVC036 06/01 A3029 RMK AO2 SLP256 T00610011
  • 171551Z 04011G20KT 10SM BKN035 05/M01 A3032 RMK AO2 SLP267 T00501006

TAF KTEB
Valide du 17 à 18h jusqu'au 19 à 00h UTC


171739Z 1718/1824 03013G21KT P6SM BKN040
FM180000 02013G21KT P6SM BKN030
FM180600 01014G22KT P6SM BKN020
FM181200 36012G20KT 6SM -SHRA BKN015
FM181800 35009KT 5SM -SHRA BR BKN015



MET'MAP, la Météo Aéronautique d'un coup d'oeil ! - Copyright ORBIFLY Décembre 2007 - Disclaimer

ORBIFLY MET'MAP TEAM :

Programmation & Développement : Alexandra Zaïnal
Conception & Développement : Baudouin d'Aumeries
Co-Programmation & Développement : Marc-Olivier Méhu
Soutien technique & logistique : Manuel Goepfert

Contact : metmap@orbifly.com




SOURCES & CREDITS :

   NOAA       Earth
Advisory